createdAt,value
2019-02-07T00:00:44.656Z,13.50
2019-02-07T00:03:15.991Z,15.90
2019-02-07T00:05:47.206Z,14.27
2019-02-07T00:08:18.642Z,13.30
2019-02-07T00:10:51.012Z,15.30
2019-02-07T00:13:22.344Z,13.57
2019-02-07T00:15:54.061Z,15.70
2019-02-07T00:18:25.126Z,16.10
2019-02-07T00:20:56.392Z,18.77
2019-02-07T00:23:27.634Z,16.57
2019-02-07T00:25:58.770Z,16.13
2019-02-07T00:28:29.900Z,15.83
2019-02-07T00:31:00.983Z,15.93
2019-02-07T00:33:32.197Z,15.27
2019-02-07T00:36:03.589Z,16.87
2019-02-07T00:38:35.099Z,14.43
2019-02-07T00:41:06.550Z,16.13
2019-02-07T00:43:38.726Z,13.43
2019-02-07T00:46:09.907Z,15.90
2019-02-07T00:48:42.393Z,14.60
2019-02-07T00:51:13.770Z,13.57
2019-02-07T00:53:45.349Z,13.93
2019-02-07T00:56:16.387Z,13.10
2019-02-07T00:58:47.849Z,12.40
2019-02-07T01:01:19.628Z,14.50
2019-02-07T01:03:51.425Z,14.10
2019-02-07T01:06:22.671Z,15.30
2019-02-07T01:08:54.368Z,16.33
2019-02-07T01:11:25.677Z,14.03
2019-02-07T01:13:56.823Z,16.13
2019-02-07T01:16:28.078Z,15.93
2019-02-07T01:18:59.133Z,16.03
2019-02-07T01:21:30.447Z,14.63
2019-02-07T01:24:01.632Z,15.50
2019-02-07T01:26:32.773Z,15.80
2019-02-07T01:29:04.116Z,17.03
2019-02-07T01:31:35.207Z,15.90
2019-02-07T01:34:06.295Z,20.17
2019-02-07T01:36:37.347Z,22.80
2019-02-07T01:39:10.905Z,18.63
2019-02-07T01:41:41.944Z,17.17
2019-02-07T01:44:13.092Z,18.47
2019-02-07T01:46:43.779Z,17.90
2019-02-07T01:49:14.443Z,21.47
2019-02-07T01:51:45.905Z,22.20
2019-02-07T01:54:16.579Z,19.33
2019-02-07T01:56:47.883Z,19.83
2019-02-07T01:59:19.218Z,21.03
2019-02-07T02:01:50.296Z,22.20
2019-02-07T02:04:22.061Z,22.93
2019-02-07T02:06:54.109Z,24.43
2019-02-07T02:09:25.361Z,22.83
2019-02-07T02:11:57.380Z,24.80
2019-02-07T02:14:29.405Z,23.50
2019-02-07T02:17:01.131Z,23.67
2019-02-07T02:19:32.455Z,25.63
2019-02-07T02:22:04.032Z,23.90
2019-02-07T02:24:35.345Z,20.57
2019-02-07T02:27:06.731Z,23.60
2019-02-07T02:29:38.753Z,27.23
2019-02-07T02:32:10.565Z,24.03
2019-02-07T02:34:41.887Z,25.23
2019-02-07T02:37:13.567Z,26.27
2019-02-07T02:39:46.451Z,22.83
2019-02-07T02:42:17.828Z,27.67
2019-02-07T02:44:49.169Z,28.57
2019-02-07T02:47:20.263Z,28.53
2019-02-07T02:49:51.651Z,29.30
2019-02-07T02:52:22.840Z,29.97
2019-02-07T02:54:56.039Z,26.60
2019-02-07T02:57:26.833Z,28.30
2019-02-07T02:59:58.291Z,32.97
2019-02-07T03:02:51.156Z,31.27
2019-02-07T03:05:41.281Z,29.20
2019-02-07T03:08:37.133Z,30.23
2019-02-07T03:11:42.595Z,31.47
2019-02-07T03:14:32.606Z,30.00
2019-02-07T03:17:37.684Z,30.57
2019-02-07T03:20:34.598Z,28.57
2019-02-07T03:23:24.590Z,27.63
2019-02-07T03:26:24.722Z,30.43
2019-02-07T03:29:29.473Z,25.23
2019-02-07T03:32:16.219Z,31.50
2019-02-07T03:34:59.665Z,26.73
2019-02-07T03:37:55.644Z,29.50
2019-02-07T03:40:44.833Z,31.67
2019-02-07T03:43:41.109Z,31.70
2019-02-07T03:46:29.535Z,28.53
2019-02-07T03:49:20.334Z,27.67
2019-02-07T03:52:09.376Z,25.57
2019-02-07T03:54:54.705Z,28.23
2019-02-07T03:57:59.794Z,37.43
2019-02-07T04:00:41.145Z,34.83
2019-02-07T04:03:40.180Z,33.73
2019-02-07T04:06:33.548Z,34.67
2019-02-07T04:09:44.662Z,33.03
2019-02-07T04:12:37.772Z,29.27
2019-02-07T04:15:30.972Z,28.27
2019-02-07T04:18:19.509Z,30.30
2019-02-07T04:21:04.884Z,30.53
2019-02-07T04:23:53.706Z,30.90
2019-02-07T04:26:43.852Z,29.67
2019-02-07T04:29:39.065Z,28.83
2019-02-07T04:32:29.121Z,31.87
2019-02-07T04:35:24.731Z,31.53
2019-02-07T04:38:11.044Z,31.97
2019-02-07T04:41:07.395Z,29.33
2019-02-07T04:43:56.169Z,30.03
2019-02-07T04:46:44.921Z,29.60
2019-02-07T04:49:35.349Z,34.57
2019-02-07T04:52:40.802Z,31.97
2019-02-07T04:55:30.874Z,32.20
2019-02-07T04:58:22.395Z,33.63
2019-02-07T05:01:18.720Z,34.97
2019-02-07T05:04:24.435Z,28.80
2019-02-07T05:07:14.447Z,36.43
2019-02-07T05:10:08.200Z,38.53
2019-02-07T05:12:54.259Z,51.77
2019-02-07T05:15:50.004Z,39.47
2019-02-07T05:18:38.921Z,34.63
2019-02-07T05:21:27.423Z,34.00
2019-02-07T05:24:21.243Z,31.30
2019-02-07T05:27:13.245Z,33.43
2019-02-07T05:30:18.105Z,33.70
2019-02-07T05:33:19.980Z,61.43
2019-02-07T05:36:20.010Z,99.77
2019-02-07T05:39:04.424Z,132.13
2019-02-07T05:41:58.957Z,102.43
2019-02-07T05:44:36.085Z,95.13
2019-02-07T05:47:32.070Z,65.37
2019-02-07T05:50:16.448Z,429.80
2019-02-07T05:53:24.202Z,247.53
2019-02-07T05:56:16.338Z,165.07
2019-02-07T05:59:06.534Z,138.07
2019-02-07T06:02:05.749Z,242.10
2019-02-07T06:05:10.403Z,218.77
2019-02-07T06:07:59.728Z,193.63
2019-02-07T06:10:48.252Z,189.43
2019-02-07T06:13:46.996Z,111.63
2019-02-07T06:16:35.214Z,109.40
2019-02-07T06:19:23.540Z,63.37
2019-02-07T06:22:09.966Z,72.33
2019-02-07T06:24:58.590Z,86.13
2019-02-07T06:28:00.397Z,62.83
2019-02-07T06:30:52.939Z,57.23
2019-02-07T06:33:41.758Z,54.90
2019-02-07T06:36:31.298Z,41.57
2019-02-07T06:39:19.585Z,35.70
2019-02-07T06:42:01.991Z,114.03
2019-02-07T06:44:48.973Z,118.57
2019-02-07T06:47:41.296Z,38.33
2019-02-07T06:50:30.836Z,67.93
2019-02-07T06:53:15.643Z,126.57
2019-02-07T06:56:04.224Z,105.13
2019-02-07T06:58:55.268Z,50.17
2019-02-07T07:01:42.425Z,113.40
2019-02-07T07:04:27.005Z,170.77
2019-02-07T07:07:16.034Z,82.77
2019-02-07T07:10:09.961Z,73.37
2019-02-07T07:12:59.441Z,144.50
2019-02-07T07:15:52.807Z,61.43
2019-02-07T07:18:57.368Z,114.03
2019-02-07T07:21:45.715Z,49.13
2019-02-07T07:24:35.300Z,106.90
2019-02-07T07:27:27.869Z,61.37
2019-02-07T07:30:23.187Z,46.17
2019-02-07T07:33:12.111Z,53.20
2019-02-07T07:36:01.740Z,35.40
2019-02-07T07:38:49.398Z,57.10
2019-02-07T07:41:39.814Z,30.17
2019-02-07T07:44:32.698Z,19.60
2019-02-07T07:47:12.693Z,20.83
2019-02-07T07:50:17.678Z,23.57
2019-02-07T07:53:05.980Z,24.17
2019-02-07T07:55:47.575Z,21.47
2019-02-07T07:58:35.781Z,18.90
2019-02-07T08:01:24.943Z,20.60
2019-02-07T08:04:30.381Z,16.50
2019-02-07T08:07:20.221Z,18.67
2019-02-07T08:10:11.719Z,19.17
2019-02-07T08:12:55.897Z,19.07
2019-02-07T08:15:36.311Z,16.90
2019-02-07T08:18:27.217Z,20.50
2019-02-07T08:21:15.651Z,17.60
2019-02-07T08:24:14.587Z,18.00
2019-02-07T08:27:03.150Z,16.97
2019-02-07T08:29:51.667Z,16.90
2019-02-07T08:32:50.323Z,16.43
2019-02-07T08:35:41.543Z,16.77
2019-02-07T08:38:26.756Z,17.13
2019-02-07T08:41:22.881Z,17.00
2019-02-07T08:44:24.216Z,18.80
2019-02-07T08:47:14.223Z,18.27
2019-02-07T08:50:13.180Z,12.27
2019-02-07T08:52:59.135Z,14.30
2019-02-07T08:55:47.553Z,19.47
2019-02-07T08:58:36.705Z,15.43
2019-02-07T09:01:28.605Z,12.93
2019-02-07T09:04:13.442Z,14.20
2019-02-07T09:07:22.044Z,13.20
2019-02-07T09:10:14.730Z,17.27
2019-02-07T09:13:03.091Z,12.70
2019-02-07T09:15:51.954Z,16.47
2019-02-07T09:18:33.564Z,16.27
2019-02-07T09:21:28.507Z,16.47
2019-02-07T09:24:17.388Z,15.03
2019-02-07T09:27:06.356Z,21.13
2019-02-07T09:29:53.575Z,23.70
2019-02-07T09:32:42.463Z,20.07
2019-02-07T09:35:32.262Z,18.23
2019-02-07T09:38:40.052Z,18.17
2019-02-07T09:41:28.178Z,19.17
2019-02-07T09:44:21.160Z,20.40
2019-02-07T09:47:09.639Z,19.33
2019-02-07T09:50:02.783Z,20.43
2019-02-07T09:52:51.581Z,23.27
2019-02-07T09:55:43.987Z,19.37
2019-02-07T09:58:33.590Z,18.00
2019-02-07T10:01:23.449Z,19.53
2019-02-07T10:04:13.083Z,19.73
2019-02-07T10:06:56.401Z,21.23
2019-02-07T10:09:58.746Z,19.60
2019-02-07T10:12:51.090Z,18.87
2019-02-07T10:15:46.788Z,21.43
2019-02-07T10:18:40.027Z,21.13
2019-02-07T10:21:28.898Z,18.97
2019-02-07T10:24:28.689Z,18.60
2019-02-07T10:27:19.390Z,17.87
2019-02-07T10:30:04.894Z,22.47
2019-02-07T10:32:54.415Z,13.70
2019-02-07T10:35:42.488Z,15.57
2019-02-07T10:38:22.590Z,12.97
2019-02-07T10:41:27.665Z,18.07
2019-02-07T10:44:23.316Z,15.23
2019-02-07T10:47:19.212Z,14.27
2019-02-07T10:50:08.720Z,14.27
2019-02-07T10:52:53.929Z,14.67
2019-02-07T10:55:58.888Z,15.80
2019-02-07T10:58:48.379Z,11.97
2019-02-07T11:01:39.200Z,13.20
2019-02-07T11:04:24.085Z,15.27
2019-02-07T11:07:32.884Z,17.77
2019-02-07T11:10:27.985Z,14.47
2019-02-07T11:13:16.716Z,17.40
2019-02-07T11:16:18.510Z,18.80
2019-02-07T11:18:57.800Z,14.27
2019-02-07T11:21:50.162Z,13.30
2019-02-07T11:24:39.006Z,14.37
2019-02-07T11:27:27.270Z,13.53
2019-02-07T11:30:15.428Z,14.73
2019-02-07T11:33:04.357Z,16.43
2019-02-07T11:35:49.673Z,16.47
2019-02-07T11:38:45.296Z,14.53
2019-02-07T11:41:37.381Z,14.83
2019-02-07T11:44:32.868Z,15.03
2019-02-07T11:47:14.031Z,16.27
2019-02-07T11:50:02.453Z,16.10
2019-02-07T11:52:58.112Z,14.53
2019-02-07T11:55:48.046Z,15.23
2019-02-07T11:58:37.722Z,18.50
2019-02-07T12:01:21.321Z,17.63
2019-02-07T12:04:09.651Z,18.90
2019-02-07T12:06:58.827Z,21.70
2019-02-07T12:09:54.950Z,20.53
2019-02-07T12:12:44.488Z,25.67
2019-02-07T12:15:32.921Z,16.23
2019-02-07T12:18:28.721Z,20.37
2019-02-07T12:21:27.217Z,16.10
2019-02-07T12:24:25.364Z,17.23
2019-02-07T12:27:13.733Z,17.20
2019-02-07T12:30:06.174Z,16.57
2019-02-07T12:33:05.714Z,17.83
2019-02-07T12:36:01.283Z,18.23
2019-02-07T12:38:41.791Z,16.70
2019-02-07T12:41:30.356Z,19.63
2019-02-07T12:44:35.060Z,18.50
2019-02-07T12:47:26.076Z,17.77
2019-02-07T12:50:14.268Z,19.60
2019-02-07T12:53:10.093Z,20.67
2019-02-07T12:55:58.405Z,18.30
2019-02-07T12:58:47.108Z,17.97
2019-02-07T13:01:37.826Z,18.83
2019-02-07T13:04:33.397Z,16.73
2019-02-07T13:07:22.444Z,16.03
2019-02-07T13:10:15.946Z,14.07
2019-02-07T13:13:00.081Z,16.87
2019-02-07T13:16:02.267Z,15.90
2019-02-07T13:18:57.798Z,25.27
2019-02-07T13:21:53.435Z,16.97
2019-02-07T13:24:35.536Z,20.53
2019-02-07T13:27:24.415Z,18.13
2019-02-07T13:30:19.342Z,15.47
2019-02-07T13:33:09.630Z,17.50
2019-02-07T13:35:50.037Z,16.80
2019-02-07T13:38:38.544Z,16.17
2019-02-07T13:41:46.772Z,15.20
2019-02-07T13:44:48.743Z,18.73
2019-02-07T13:47:43.946Z,14.67
2019-02-07T13:50:43.020Z,15.10
2019-02-07T13:53:25.885Z,16.53
2019-02-07T13:56:14.326Z,15.97
2019-02-07T13:59:02.745Z,16.27
2019-02-07T14:01:46.604Z,17.97
2019-02-07T14:04:36.150Z,18.00
2019-02-07T14:07:24.658Z,15.33
2019-02-07T14:10:14.351Z,16.80
2019-02-07T14:13:03.357Z,14.00
2019-02-07T14:15:57.591Z,18.07
2019-02-07T14:18:45.984Z,17.57
2019-02-07T14:21:43.419Z,15.80
2019-02-07T14:24:24.766Z,16.13
2019-02-07T14:27:13.034Z,17.60
2019-02-07T14:30:00.519Z,17.30
2019-02-07T14:32:59.145Z,18.23
2019-02-07T14:35:47.376Z,21.40
2019-02-07T14:38:35.690Z,17.60
2019-02-07T14:41:24.094Z,16.57
2019-02-07T14:44:02.465Z,18.63
2019-02-07T14:46:48.070Z,19.43
2019-02-07T14:49:18.803Z,18.10
2019-02-07T14:51:49.576Z,20.90
2019-02-07T14:54:20.325Z,21.47
2019-02-07T14:56:51.447Z,18.97
2019-02-07T14:59:22.196Z,19.97
2019-02-07T15:01:53.021Z,22.83
2019-02-07T15:04:23.781Z,19.87
2019-02-07T15:06:56.047Z,19.80
2019-02-07T15:09:26.915Z,21.47
2019-02-07T15:11:57.603Z,20.90
2019-02-07T15:14:28.315Z,27.23
2019-02-07T15:16:59.045Z,22.67
2019-02-07T15:19:29.709Z,19.50
2019-02-07T15:22:00.747Z,22.87
2019-02-07T15:24:32.211Z,28.17
2019-02-07T15:27:02.867Z,26.07
2019-02-07T15:29:33.522Z,21.87
2019-02-07T15:32:04.301Z,23.93
2019-02-07T15:34:35.260Z,23.90
2019-02-07T15:37:06.034Z,21.37
2019-02-07T15:39:36.931Z,21.43
2019-02-07T15:42:07.760Z,21.73
2019-02-07T15:44:38.400Z,27.67
2019-02-07T15:47:09.630Z,25.67
2019-02-07T15:49:40.409Z,23.13
2019-02-07T15:52:11.672Z,22.17
2019-02-07T15:54:44.536Z,25.57
2019-02-07T15:57:16.021Z,23.37
2019-02-07T15:59:51.093Z,20.80
2019-02-07T16:02:26.127Z,26.07
2019-02-07T16:04:57.560Z,24.43
2019-02-07T16:07:28.364Z,22.67
2019-02-07T16:09:59.640Z,21.37
2019-02-07T16:12:30.578Z,23.63
2019-02-07T16:15:01.245Z,26.30
2019-02-07T16:17:31.946Z,24.03
2019-02-07T16:20:02.671Z,28.87
2019-02-07T16:22:33.529Z,36.23
2019-02-07T16:25:07.366Z,26.33
2019-02-07T16:27:38.887Z,27.23
2019-02-07T16:30:14.727Z,26.97
2019-02-07T16:32:45.680Z,39.70
2019-02-07T16:35:17.403Z,32.87
2019-02-07T16:37:48.079Z,209.47
2019-02-07T16:40:22.016Z,434.13
2019-02-07T16:42:52.973Z,332.27
2019-02-07T16:45:24.844Z,316.73
2019-02-07T16:47:55.499Z,287.40
2019-02-07T16:50:26.902Z,318.60
2019-02-07T16:52:57.604Z,366.80
2019-02-07T16:55:29.481Z,160.30
2019-02-07T16:58:00.664Z,174.10
2019-02-07T17:00:32.532Z,114.90
2019-02-07T17:03:04.027Z,198.53
2019-02-07T17:05:37.706Z,255.80
2019-02-07T17:08:07.830Z,102.30
2019-02-07T17:10:39.827Z,92.07
2019-02-07T17:13:11.937Z,61.27
2019-02-07T17:15:45.212Z,57.80
2019-02-07T17:18:18.502Z,46.87
2019-02-07T17:20:50.112Z,48.33
2019-02-07T17:23:21.323Z,32.93
2019-02-07T17:25:52.879Z,30.10
2019-02-07T17:28:24.378Z,25.80
2019-02-07T17:30:56.094Z,23.87
2019-02-07T17:33:28.226Z,27.40
2019-02-07T17:35:59.759Z,25.60
2019-02-07T17:38:31.052Z,25.90
2019-02-07T17:41:02.296Z,24.13
2019-02-07T17:43:34.395Z,24.93
2019-02-07T17:46:06.253Z,27.00
2019-02-07T17:48:37.590Z,23.83
2019-02-07T17:51:10.189Z,24.27
2019-02-07T17:53:41.646Z,26.37
2019-02-07T17:56:13.024Z,27.70
2019-02-07T17:58:44.447Z,25.00
2019-02-07T18:01:15.856Z,25.77
2019-02-07T18:03:50.040Z,27.60
2019-02-07T18:06:21.270Z,22.57
2019-02-07T18:08:52.404Z,23.10
2019-02-07T18:11:23.600Z,26.80
2019-02-07T18:13:54.384Z,22.30
2019-02-07T18:16:25.071Z,25.67
2019-02-07T18:18:56.693Z,25.33
2019-02-07T18:21:33.953Z,26.13
2019-02-07T18:24:00.501Z,25.60
2019-02-07T18:26:32.589Z,28.90
2019-02-07T18:29:03.806Z,28.50
2019-02-07T18:31:35.598Z,27.77
2019-02-07T18:34:06.956Z,25.17
2019-02-07T18:36:38.583Z,24.57
2019-02-07T18:39:11.789Z,26.80
2019-02-07T18:41:43.505Z,27.23
2019-02-07T18:44:15.133Z,25.83
2019-02-07T18:46:46.735Z,28.40
2019-02-07T18:49:17.835Z,28.57
2019-02-07T18:51:49.152Z,26.27
2019-02-07T18:54:20.600Z,27.33
2019-02-07T18:56:52.056Z,32.73
2019-02-07T18:59:23.265Z,27.27
2019-02-07T19:01:54.845Z,27.17
2019-02-07T19:04:37.046Z,28.40
2019-02-07T19:07:19.698Z,27.53
2019-02-07T19:09:59.488Z,28.37
2019-02-07T19:12:31.382Z,31.00
2019-02-07T19:15:02.883Z,30.73
2019-02-07T19:17:35.109Z,30.33
2019-02-07T19:20:15.453Z,29.93
2019-02-07T19:22:47.188Z,25.80
2019-02-07T19:25:19.589Z,30.50
2019-02-07T19:27:52.244Z,26.10
2019-02-07T19:30:27.539Z,28.83
2019-02-07T19:32:59.899Z,30.27
2019-02-07T19:35:31.932Z,33.10
2019-02-07T19:38:03.827Z,32.60
2019-02-07T19:40:35.257Z,29.43
2019-02-07T19:43:07.534Z,29.43
2019-02-07T19:45:38.820Z,30.87
2019-02-07T19:48:10.622Z,32.10
2019-02-07T19:50:41.903Z,31.93
2019-02-07T19:53:13.375Z,31.83
2019-02-07T19:55:44.626Z,31.77
2019-02-07T19:58:16.770Z,33.20
2019-02-07T20:00:48.239Z,35.07
2019-02-07T20:03:20.670Z,35.33
2019-02-07T20:05:52.807Z,36.07
2019-02-07T20:08:24.412Z,32.53
2019-02-07T20:10:55.611Z,31.27
2019-02-07T20:13:34.347Z,33.03
2019-02-07T20:16:06.171Z,28.57
2019-02-07T20:18:38.179Z,31.23
2019-02-07T20:21:09.508Z,32.60
2019-02-07T20:23:40.988Z,31.50
2019-02-07T20:26:12.429Z,37.87
2019-02-07T20:28:43.883Z,34.43
2019-02-07T20:31:15.037Z,36.27
2019-02-07T20:33:47.291Z,34.20
2019-02-07T20:36:18.600Z,42.00
2019-02-07T20:38:49.838Z,37.50
2019-02-07T20:41:21.752Z,34.93
2019-02-07T20:43:53.061Z,33.77
2019-02-07T20:46:29.350Z,35.00
2019-02-07T20:49:01.325Z,36.83
2019-02-07T20:51:32.655Z,35.03
2019-02-07T20:54:03.381Z,33.80
2019-02-07T20:56:34.787Z,34.93
2019-02-07T20:59:08.658Z,32.80
2019-02-07T21:01:39.693Z,36.57
2019-02-07T21:04:10.429Z,33.03
2019-02-07T21:06:42.272Z,39.50
2019-02-07T21:09:13.909Z,37.20
2019-02-07T21:11:45.163Z,38.37
2019-02-07T21:14:16.850Z,40.87
2019-02-07T21:16:48.211Z,42.83
2019-02-07T21:19:19.796Z,40.67
2019-02-07T21:21:51.197Z,34.77
2019-02-07T21:24:22.768Z,31.53
2019-02-07T21:26:54.142Z,32.23
2019-02-07T21:29:25.170Z,33.93
2019-02-07T21:31:55.850Z,34.37
2019-02-07T21:34:26.523Z,32.67
2019-02-07T21:36:58.032Z,36.37
2019-02-07T21:39:28.699Z,36.17
2019-02-07T21:41:59.870Z,32.37
2019-02-07T21:44:31.483Z,35.43
2019-02-07T21:47:02.872Z,36.17
2019-02-07T21:49:34.422Z,37.00
2019-02-07T21:52:05.690Z,38.90
2019-02-07T21:54:38.328Z,38.57
2019-02-07T21:57:09.896Z,32.83
2019-02-07T21:59:41.590Z,36.63
2019-02-07T22:02:12.944Z,36.70
2019-02-07T22:04:44.425Z,36.73
2019-02-07T22:07:15.583Z,36.60
2019-02-07T22:09:47.769Z,37.07
2019-02-07T22:12:19.146Z,37.77
2019-02-07T22:14:50.649Z,34.87
2019-02-07T22:17:22.225Z,34.50
2019-02-07T22:19:53.524Z,36.23
2019-02-07T22:22:25.511Z,43.00
2019-02-07T22:24:57.012Z,36.77
2019-02-07T22:27:27.763Z,33.80
2019-02-07T22:29:58.523Z,35.97
2019-02-07T22:32:29.375Z,36.70
2019-02-07T22:35:00.097Z,36.60
2019-02-07T22:37:31.014Z,37.63
2019-02-07T22:40:04.382Z,40.70
2019-02-07T22:42:35.081Z,35.00
2019-02-07T22:45:08.353Z,37.73
2019-02-07T22:47:41.448Z,33.97
2019-02-07T22:50:20.757Z,35.57
2019-02-07T22:52:56.747Z,38.10
2019-02-07T22:55:25.616Z,35.70
2019-02-07T22:57:57.752Z,33.80
2019-02-07T23:01:49.077Z,36.80
2019-02-07T23:04:21.953Z,37.03
2019-02-07T23:06:53.562Z,36.90
2019-02-07T23:09:24.997Z,39.27
2019-02-07T23:11:56.995Z,39.47
2019-02-07T23:14:28.200Z,38.70
2019-02-07T23:16:59.402Z,35.60
2019-02-07T23:19:30.843Z,35.67
2019-02-07T23:22:02.563Z,42.27
2019-02-07T23:24:34.448Z,38.43
2019-02-07T23:27:06.361Z,35.57
2019-02-07T23:29:37.784Z,39.87
2019-02-07T23:32:09.318Z,42.10
2019-02-07T23:34:40.863Z,36.87
2019-02-07T23:37:12.807Z,36.63
2019-02-07T23:39:44.859Z,38.13
2019-02-07T23:42:16.539Z,40.07
2019-02-07T23:44:47.975Z,39.03
2019-02-07T23:47:19.203Z,41.37
2019-02-07T23:49:50.555Z,35.13
2019-02-07T23:52:21.790Z,35.63
2019-02-07T23:54:53.286Z,41.10
2019-02-07T23:57:24.687Z,38.30
2019-02-07T23:59:56.041Z,37.90
